Time;durP1;ratioP1;P1;durP2;ratioP2;P2;SDS_P1;SDS_P2;PMS_P1;PMS_P2;Temp;Humidity;BMP_temperature;BMP_pressure;BME280_temperature;BME280_humidity;BME280_pressure;Samples;Min_cycle;Max_cycle;Signal;HPM_P1;HPM_P2
2021/08/24 00:00:19;;;;;;;4.60;1.70;;;;;;;14.16;100.00;101478.44;5096048;28;20106;-79
2021/08/24 00:03:22;;;;;;;17.92;0.68;;;;;;;14.20;100.00;101487.47;5096481;28;20075;-77
2021/08/24 00:06:25;;;;;;;2.78;1.50;;;;;;;14.25;100.00;101486.88;5096256;28;20055;-79
2021/08/24 00:09:28;;;;;;;3.25;1.05;;;;;;;14.30;100.00;101491.88;5095740;28;20046;-78
2021/08/24 00:12:31;;;;;;;4.13;1.67;;;;;;;14.32;100.00;101487.38;5095871;28;20066;-78
2021/08/24 00:15:35;;;;;;;5.82;1.85;;;;;;;14.35;100.00;101496.91;5095487;28;20047;-78
2021/08/24 00:18:38;;;;;;;3.35;0.55;;;;;;;14.41;100.00;101507.03;5074581;28;20051;-78
2021/08/24 00:21:41;;;;;;;2.78;0.93;;;;;;;14.43;100.00;101500.97;5038932;28;20059;-78
2021/08/24 00:24:44;;;;;;;4.00;1.10;;;;;;;14.47;100.00;101495.22;5038565;28;20051;-78
2021/08/24 00:27:47;;;;;;;2.65;0.80;;;;;;;14.49;100.00;101499.09;5038158;28;20118;-78
2021/08/24 00:30:50;;;;;;;2.35;0.75;;;;;;;14.50;100.00;101492.28;5038343;28;20859;-78
2021/08/24 00:33:53;;;;;;;4.82;1.30;;;;;;;14.52;100.00;101489.00;5038820;28;20272;-77
2021/08/24 00:36:56;;;;;;;3.78;0.82;;;;;;;14.53;100.00;101493.38;5037293;28;21065;-78
2021/08/24 00:39:59;;;;;;;3.08;1.30;;;;;;;14.53;100.00;101484.97;5037195;28;20613;-78
2021/08/24 00:43:02;;;;;;;0.93;0.52;;;;;;;14.52;100.00;101489.78;5036762;28;21164;-78
2021/08/24 00:46:27;;;;;;;2.20;1.17;;;;;;;14.54;100.00;101480.91;5037572;28;20109;-78
2021/08/24 00:49:30;;;;;;;4.22;0.85;;;;;;;14.58;100.00;101475.91;5036767;28;20806;-78
2021/08/24 00:52:33;;;;;;;1.92;0.93;;;;;;;14.57;100.00;101472.34;5035899;28;20698;-79
2021/08/24 00:55:40;;;;;;;1.77;0.32;;;;;;;14.59;100.00;101467.06;5031700;28;20046;-78
2021/08/24 00:58:44;;;;;;;2.03;0.93;;;;;;;14.64;100.00;101474.84;5027441;28;20451;-78
2021/08/24 01:01:50;;;;;;;2.13;0.75;;;;;;;14.67;100.00;101471.13;5029732;28;20083;-78
2021/08/24 01:04:54;;;;;;;3.65;0.60;;;;;;;14.71;100.00;101470.97;5030376;28;20256;-77
2021/08/24 01:08:20;;;;;;;0.82;0.28;;;;;;;14.68;100.00;101469.91;5031558;28;20612;-78
2021/08/24 01:11:37;;;;;;;0.47;0.40;;;;;;;14.71;100.00;101468.94;5028944;28;20145;-77
2021/08/24 01:15:07;;;;;;;0.88;0.40;;;;;;;14.70;100.00;101469.41;5028094;28;20051;-78
2021/08/24 01:18:32;;;;;;;1.85;1.20;;;;;;;14.69;100.00;101465.81;5046264;28;20604;-78
2021/08/24 01:22:33;;;;;;;0.38;0.32;;;;;;;14.68;100.00;101464.28;5049379;28;20086;-77
2021/08/24 01:25:50;;;;;;;0.57;0.28;;;;;;;14.71;100.00;101463.34;4948775;28;20057;-77
2021/08/24 01:29:21;;;;;;;1.80;0.70;;;;;;;14.70;100.00;101461.78;4952461;28;20205;-78
2021/08/24 01:32:33;;;;;;;1.60;0.68;;;;;;;14.71;100.00;101463.34;5048161;28;20137;-76
2021/08/24 01:36:07;;;;;;;0.98;0.80;;;;;;;14.72;100.00;101464.91;5048007;28;20070;-76
2021/08/24 01:39:31;;;;;;;0.68;0.40;;;;;;;14.70;100.00;101458.19;5048126;28;20054;-77
2021/08/24 01:42:35;;;;;;;2.20;0.40;;;;;;;14.71;100.00;101457.72;5048145;28;20050;-78
2021/08/24 01:45:47;;;;;;;2.13;0.20;;;;;;;14.73;100.00;101448.84;5045826;28;20697;-78
2021/08/24 01:48:54;;;;;;;0.68;0.43;;;;;;;14.73;100.00;101455.25;5048606;28;20283;-78
2021/08/24 01:52:05;;;;;;;1.65;0.50;;;;;;;14.73;100.00;101455.25;5048734;28;20047;-77
2021/08/24 01:55:18;;;;;;;1.77;0.73;;;;;;;14.72;100.00;101458.50;5051829;28;20090;-77
2021/08/24 01:58:32;;;;;;;0.40;0.20;;;;;;;14.76;100.00;101461.94;5047926;28;20050;-76
2021/08/24 02:01:41;;;;;;;2.72;0.25;;;;;;;14.74;100.00;101462.41;5048449;28;20050;-77
2021/08/24 02:05:06;;;;;;;0.90;0.28;;;;;;;14.76;100.00;101457.13;5048039;28;20143;-77
2021/08/24 02:08:21;;;;;;;2.78;0.50;;;;;;;14.74;100.00;101459.63;5047068;28;20746;-77
2021/08/24 02:11:29;;;;;;;0.40;0.20;;;;;;;14.75;100.00;101455.53;5047016;28;20075;-76
2021/08/24 02:14:35;;;;;;;0.73;0.20;;;;;;;14.74;100.00;101451.19;5047352;28;20643;-76
2021/08/24 02:17:42;;;;;;;5.38;0.43;;;;;;;14.73;100.00;101457.25;5046501;28;20070;-76
2021/08/24 02:20:51;;;;;;;0.68;0.25;;;;;;;14.72;100.00;101467.72;5047071;28;20387;-76
2021/08/24 02:23:59;;;;;;;1.52;1.00;;;;;;;14.71;100.00;101463.34;5047591;28;20585;-76
2021/08/24 02:27:07;;;;;;;0.68;0.25;;;;;;;14.72;100.00;101464.13;5036263;28;20223;-77
2021/08/24 02:30:11;;;;;;;0.20;0.20;;;;;;;14.71;100.00;101463.34;5047344;28;20745;-77
2021/08/24 02:33:17;;;;;;;1.10;0.43;;;;;;;14.82;100.00;101460.06;5047098;28;20050;-77
2021/08/24 02:36:22;;;;;;;1.90;0.70;;;;;;;14.89;100.00;101468.19;5047767;28;21180;-76
2021/08/24 02:39:33;;;;;;;2.72;0.63;;;;;;;14.75;100.00;101472.38;5035495;28;20087;-77
2021/08/24 02:42:52;;;;;;;0.68;0.10;;;;;;;14.70;100.00;101472.22;5047201;28;20252;-77
2021/08/24 02:46:06;;;;;;;1.75;0.40;;;;;;;14.79;100.00;101475.81;5047537;28;21077;-77
2021/08/24 02:49:14;;;;;;;0.57;0.30;;;;;;;14.90;100.00;101469.75;5048537;28;20352;-77
2021/08/24 02:52:19;;;;;;;2.65;0.85;;;;;;;15.49;100.00;101457.13;5049531;28;20067;-77
2021/08/24 02:55:22;;;;;;;1.13;0.30;;;;;;;15.69;100.00;101451.78;5050417;28;20055;-77
2021/08/24 02:58:25;;;;;;;1.83;0.63;;;;;;;15.13;100.00;101452.31;5049477;28;20216;-77
2021/08/24 03:01:28;;;;;;;1.58;0.82;;;;;;;14.60;100.00;101463.00;5048362;28;20865;-77
2021/08/24 03:04:31;;;;;;;2.22;0.60;;;;;;;14.57;100.00;101472.34;5047643;28;20071;-77
2021/08/24 03:07:37;;;;;;;1.38;0.65;;;;;;;14.53;100.00;101462.53;5048765;28;20113;-77
2021/08/24 03:10:43;;;;;;;1.85;0.40;;;;;;;14.51;100.00;101465.03;5046869;28;20055;-77
2021/08/24 03:14:02;;;;;;;0.75;0.60;;;;;;;14.59;100.00;101467.06;5047805;28;20561;-77
2021/08/24 03:17:35;;;;;;;0.35;0.30;;;;;;;14.63;100.00;101462.09;5047434;28;20721;-77
2021/08/24 03:20:43;;;;;;;1.38;0.43;;;;;;;14.64;100.00;101465.69;5031468;28;20112;-77
2021/08/24 03:23:48;;;;;;;1.25;0.60;;;;;;;14.65;100.00;101461.59;5046789;28;20066;-77
2021/08/24 03:26:51;;;;;;;2.28;0.82;;;;;;;14.56;100.00;101459.56;5047349;28;20275;-77
2021/08/24 03:30:00;;;;;;;1.63;0.73;;;;;;;14.58;100.00;101459.09;5051777;28;21120;-77
2021/08/24 03:33:04;;;;;;;2.10;0.85;;;;;;;14.56;100.00;101453.97;5050724;28;20087;-77
2021/08/24 03:36:07;;;;;;;2.10;0.57;;;;;;;14.57;100.00;101469.56;5051731;28;20743;-77
2021/08/24 03:39:10;;;;;;;2.35;1.05;;;;;;;14.54;100.00;101470.47;5051586;28;20047;-77
2021/08/24 03:42:14;;;;;;;1.55;0.63;;;;;;;14.55;100.00;101486.06;5040101;28;21098;-77
2021/08/24 03:45:17;;;;;;;3.45;1.10;;;;;;;14.57;100.00;101475.16;5052464;28;20508;-77
2021/08/24 03:48:20;;;;;;;2.13;0.40;;;;;;;14.57;100.00;101474.38;5052590;28;20125;-77
2021/08/24 03:51:23;;;;;;;1.90;1.05;;;;;;;14.59;100.00;101471.88;5053467;28;20070;-76
2021/08/24 03:54:26;;;;;;;2.53;1.15;;;;;;;14.59;100.00;101467.06;5041242;28;20094;-77
2021/08/24 03:57:29;;;;;;;1.35;0.60;;;;;;;14.65;100.00;101475.63;5052494;28;20078;-77
2021/08/24 04:00:32;;;;;;;1.55;0.40;;;;;;;14.55;100.00;101474.84;5051920;28;20723;-77
2021/08/24 04:03:35;;;;;;;2.97;0.68;;;;;;;14.52;100.00;101478.56;5051984;28;20082;-77
2021/08/24 04:06:38;;;;;;;1.58;0.70;;;;;;;14.58;100.00;101471.09;5052688;28;20071;-77
2021/08/24 04:09:41;;;;;;;1.58;0.70;;;;;;;14.60;100.00;101474.22;5051819;28;20744;-77
2021/08/24 04:12:43;;;;;;;4.22;1.08;;;;;;;14.61;100.00;101466.59;5052034;28;20148;-77
2021/08/24 04:15:46;;;;;;;0.40;0.28;;;;;;;14.58;100.00;101470.31;5054595;28;20129;-77
2021/08/24 04:18:49;;;;;;;3.60;0.77;;;;;;;14.59;100.00;101467.06;5033721;28;20098;-77
2021/08/24 04:21:52;;;;;;;3.70;1.38;;;;;;;14.57;100.00;101457.56;5033388;28;21149;-77
2021/08/24 04:24:55;;;;;;;1.55;0.32;;;;;;;14.59;100.00;101461.47;5034842;28;20048;-77
2021/08/24 04:27:58;;;;;;;5.40;1.48;;;;;;;14.56;100.00;101470.00;5031851;28;20044;-77
2021/08/24 04:31:04;;;;;;;2.30;0.68;;;;;;;14.55;100.00;101476.88;5031137;28;20059;-77
2021/08/24 04:34:07;;;;;;;1.63;0.40;;;;;;;14.54;100.00;101483.69;5031422;28;20086;-77
2021/08/24 04:37:10;;;;;;;1.00;0.20;;;;;;;14.53;100.00;101485.72;5030756;28;20377;-77
2021/08/24 04:40:13;;;;;;;2.47;0.68;;;;;;;14.51;100.00;101485.41;5029705;28;20110;-77
2021/08/24 04:43:18;;;;;;;1.92;0.60;;;;;;;14.49;100.00;101473.88;5030923;28;20059;-77
2021/08/24 04:46:21;;;;;;;7.65;1.63;;;;;;;14.46;100.00;101486.03;5030865;28;20079;-77
2021/08/24 04:49:24;;;;;;;0.85;0.43;;;;;;;14.46;100.00;101483.22;5031898;28;20048;-77
2021/08/24 04:52:27;;;;;;;1.40;0.57;;;;;;;14.49;100.00;101489.94;5032021;28;20606;-78
2021/08/24 04:55:30;;;;;;;4.53;0.80;;;;;;;14.44;100.00;101485.72;5032241;28;20677;-77
2021/08/24 04:58:33;;;;;;;0.88;0.45;;;;;;;14.43;100.00;101481.34;5032165;28;20053;-77
2021/08/24 05:01:36;;;;;;;3.00;0.40;;;;;;;14.39;100.00;101487.09;5031603;28;20742;-77
2021/08/24 05:04:39;;;;;;;8.65;0.80;;;;;;;14.38;100.00;101481.94;5033712;28;20647;-77
2021/08/24 05:07:42;;;;;;;1.63;0.80;;;;;;;14.43;100.00;101470.13;5033737;28;20963;-77
2021/08/24 05:10:45;;;;;;;1.63;0.30;;;;;;;14.34;100.00;101467.28;5019102;28;21298;-77
2021/08/24 05:13:48;;;;;;;3.15;1.20;;;;;;;14.27;100.00;101473.19;5030727;28;20043;-76
2021/08/24 05:16:58;;;;;;;0.75;0.57;;;;;;;14.35;100.00;101474.47;5034429;28;20043;-76
2021/08/24 05:20:03;;;;;;;2.42;0.75;;;;;;;14.40;100.00;101471.06;5050395;28;20066;-76
2021/08/24 05:23:06;;;;;;;0.98;0.40;;;;;;;14.43;100.00;101470.13;5050158;28;20051;-76
2021/08/24 05:26:16;;;;;;;2.35;0.95;;;;;;;14.42;100.00;101469.34;5051097;28;20128;-76
2021/08/24 05:29:19;;;;;;;0.70;0.47;;;;;;;14.43;100.00;101473.72;5050193;28;20147;-76
2021/08/24 05:32:22;;;;;;;1.85;0.50;;;;;;;14.47;100.00;101478.41;5049393;28;20040;-76
2021/08/24 05:35:25;;;;;;;2.58;1.17;;;;;;;14.50;100.00;101469.84;5037475;28;20046;-76
2021/08/24 05:38:29;;;;;;;4.03;0.68;;;;;;;14.56;100.00;101486.81;5045320;28;20047;-77
2021/08/24 05:41:33;;;;;;;14.20;3.28;;;;;;;14.59;100.00;101486.69;5045022;28;21139;-76
2021/08/24 05:44:36;;;;;;;3.72;1.33;;;;;;;14.61;100.00;101486.22;5044742;28;20083;-75
2021/08/24 05:47:39;;;;;;;4.18;1.15;;;;;;;14.63;100.00;101478.13;5044968;28;20212;-76
2021/08/24 05:50:42;;;;;;;2.60;1.27;;;;;;;14.54;100.00;101480.91;5045353;28;20102;-76
2021/08/24 05:53:45;;;;;;;1.75;1.33;;;;;;;14.72;100.00;101476.13;5047210;28;20120;-75
2021/08/24 05:56:49;;;;;;;4.88;1.25;;;;;;;14.82;100.00;101483.31;5046246;28;20728;-77
2021/08/24 05:59:52;;;;;;;0.80;0.30;;;;;;;14.90;100.00;101480.97;5045159;28;20623;-76
2021/08/24 06:02:55;;;;;;;1.20;0.63;;;;;;;14.91;100.00;101480.50;5044430;28;20104;-76
2021/08/24 06:05:59;;;;;;;2.53;1.05;;;;;;;14.89;100.00;101474.59;5045094;28;20070;-76
2021/08/24 06:09:05;;;;;;;1.42;0.50;;;;;;;14.87;100.00;101482.69;5045905;28;20279;-76
2021/08/24 06:12:08;;;;;;;2.15;0.77;;;;;;;14.94;100.00;101487.22;5042575;28;20473;-77
2021/08/24 06:15:11;;;;;;;1.50;0.65;;;;;;;14.99;100.00;101473.34;5043626;28;20133;-77
2021/08/24 06:18:15;;;;;;;1.95;0.50;;;;;;;15.00;100.00;101486.13;5044993;28;20334;-76
2021/08/24 06:21:18;;;;;;;0.75;0.50;;;;;;;15.00;100.00;101483.34;5027762;28;20292;-77
2021/08/24 06:24:21;;;;;;;1.02;0.57;;;;;;;15.03;100.00;101488.00;5043973;28;20113;-76
2021/08/24 06:27:25;;;;;;;1.60;0.28;;;;;;;15.04;100.00;101485.97;5045486;28;21147;-77
2021/08/24 06:30:28;;;;;;;4.03;0.63;;;;;;;15.10;100.00;101484.88;5044811;28;20051;-77
2021/08/24 06:33:37;;;;;;;2.92;0.30;;;;;;;15.12;100.00;101478.78;5031931;28;20653;-78
2021/08/24 06:36:41;;;;;;;6.72;1.35;;;;;;;15.14;100.00;101495.94;5042671;28;20043;-77
2021/08/24 06:39:44;;;;;;;1.40;0.65;;;;;;;15.16;100.00;101487.84;5031643;28;20097;-77
2021/08/24 06:42:50;;;;;;;2.92;0.80;;;;;;;15.18;100.00;101497.34;5045133;28;20046;-77
2021/08/24 06:45:54;;;;;;;3.08;0.65;;;;;;;15.26;100.00;101495.03;5044804;28;21034;-77
2021/08/24 06:48:57;;;;;;;2.85;0.40;;;;;;;15.34;100.00;101492.66;5042804;28;20063;-77
2021/08/24 06:52:03;;;;;;;5.57;1.33;;;;;;;15.33;100.00;101491.91;5043978;28;20059;-77
2021/08/24 06:55:08;;;;;;;2.45;0.50;;;;;;;15.36;100.00;101496.56;5044250;28;20086;-77
2021/08/24 06:58:13;;;;;;;2.40;0.50;;;;;;;15.39;100.00;101494.84;5044120;28;20113;-77
2021/08/24 07:01:22;;;;;;;3.03;0.90;;;;;;;15.42;100.00;101505.16;5044834;28;20199;-77
2021/08/24 07:04:25;;;;;;;1.63;0.77;;;;;;;15.46;100.00;101500.97;5043073;28;20367;-77
2021/08/24 07:07:29;;;;;;;1.35;0.50;;;;;;;15.44;100.00;101502.69;5027528;28;20184;-77
2021/08/24 07:10:32;;;;;;;3.53;0.90;;;;;;;15.50;100.00;101483.97;5030411;28;20502;-77
2021/08/24 07:13:35;;;;;;;1.73;0.30;;;;;;;15.60;100.00;101486.28;5045727;28;20055;-77
2021/08/24 07:16:42;;;;;;;1.27;0.47;;;;;;;15.70;100.00;101481.44;5042174;28;20043;-78
2021/08/24 07:19:45;;;;;;;3.63;0.85;;;;;;;15.74;100.00;101487.66;5043177;28;20290;-77
2021/08/24 07:22:49;;;;;;;2.22;0.85;;;;;;;15.72;100.00;101484.56;5046620;28;20035;-78
2021/08/24 07:25:52;;;;;;;4.13;0.65;;;;;;;15.76;100.00;101490.78;5034363;28;20299;-77
2021/08/24 07:28:55;;;;;;;1.02;0.32;;;;;;;15.78;100.00;101489.06;5047696;28;20213;-78
2021/08/24 07:31:58;;;;;;;2.95;0.55;;;;;;;15.71;100.00;101488.59;5046578;28;20440;-79
2021/08/24 07:35:03;;;;;;;2.10;0.75;;;;;;;15.72;100.00;101492.97;5047249;28;20145;-77
2021/08/24 07:38:05;;;;;;;1.50;0.45;;;;;;;15.76;100.00;101496.41;5047336;28;20043;-77
2021/08/24 07:41:09;;;;;;;1.08;0.63;;;;;;;15.76;100.00;101497.19;5047861;28;20666;-78
2021/08/24 07:44:12;;;;;;;4.43;1.02;;;;;;;15.78;100.00;101505.13;5042483;28;20161;-77
2021/08/24 07:47:16;;;;;;;4.40;0.77;;;;;;;15.87;100.00;101496.69;5021431;28;20385;-77
2021/08/24 07:50:19;;;;;;;2.38;1.20;;;;;;;16.01;100.00;101507.25;5027073;28;20692;-78
2021/08/24 07:53:23;;;;;;;3.20;1.20;;;;;;;16.12;100.00;101495.50;5026904;28;20564;-77
2021/08/24 07:56:27;;;;;;;2.67;0.35;;;;;;;16.20;100.00;101503.13;5040064;28;20067;-78
2021/08/24 07:59:30;;;;;;;2.13;0.52;;;;;;;16.25;100.00;101505.28;5048502;28;20153;-76
2021/08/24 08:02:33;;;;;;;1.23;0.57;;;;;;;16.27;100.00;101505.59;5048431;28;20148;-76
2021/08/24 08:05:36;;;;;;;1.15;0.47;;;;;;;16.27;100.00;101508.41;5048649;28;20240;-76
2021/08/24 08:08:39;;;;;;;2.80;0.60;;;;;;;16.18;100.00;101508.44;5046193;28;20248;-77
2021/08/24 08:11:42;;;;;;;2.97;0.95;;;;;;;16.09;100.00;101519.69;5047152;28;20051;-77
2021/08/24 08:14:46;;;;;;;2.83;0.50;;;;;;;16.19;100.00;101512.03;5050937;28;20042;-77
2021/08/24 08:17:49;;;;;;;2.90;0.85;;;;;;;16.34;100.00;101510.88;5052160;28;20047;-77
2021/08/24 08:20:52;;;;;;;2.85;1.10;;;;;;;16.50;100.00;101516.13;5052224;28;20125;-77
2021/08/24 08:23:56;;;;;;;1.92;1.13;;;;;;;16.64;100.00;101509.81;5051608;28;20039;-76
2021/08/24 08:26:59;;;;;;;6.45;1.25;;;;;;;16.80;100.00;101510.66;5052127;28;20771;-76
2021/08/24 08:30:03;;;;;;;2.28;0.88;;;;;;;16.84;100.00;101514.88;5032522;28;20116;-77
2021/08/24 08:33:06;;;;;;;3.28;1.00;;;;;;;16.94;100.00;101516.34;5032937;28;20056;-76
2021/08/24 08:36:10;;;;;;;5.13;1.23;;;;;;;16.90;100.00;101518.56;5032680;28;20180;-77
2021/08/24 08:39:13;;;;;;;3.25;1.58;;;;;;;16.88;100.00;101512.66;5033118;28;20039;-76
2021/08/24 08:42:31;;;;;;;2.65;0.98;;;;;;;16.83;100.00;101526.59;5050429;28;20121;-75
2021/08/24 08:45:47;;;;;;;1.45;0.52;;;;;;;16.77;100.00;101522.88;5050657;28;20045;-75
2021/08/24 08:49:25;;;;;;;5.38;0.95;;;;;;;16.63;100.00;101527.19;5031296;28;20790;-76
2021/08/24 08:52:46;;;;;;;2.67;0.80;;;;;;;16.53;100.00;101529.25;5029976;28;20828;-76
2021/08/24 08:55:57;;;;;;;3.20;0.50;;;;;;;16.49;100.00;101525.81;5031132;28;20117;-76
2021/08/24 08:59:34;;;;;;;1.92;0.90;;;;;;;16.43;100.00;101538.19;5040229;28;20055;-76
2021/08/24 09:02:49;;;;;;;1.15;0.77;;;;;;;16.43;100.00;101532.56;5051093;28;20059;-76
2021/08/24 09:05:54;;;;;;;1.70;0.55;;;;;;;16.39;100.00;101537.56;5052922;28;20602;-76
2021/08/24 09:09:00;;;;;;;2.95;0.65;;;;;;;16.31;100.00;101548.38;5056568;28;20116;-77
2021/08/24 09:12:05;;;;;;;0.65;0.28;;;;;;;16.30;100.00;101546.81;5056156;28;20383;-76
2021/08/24 09:15:17;;;;;;;1.80;0.40;;;;;;;16.28;100.00;101538.09;5056443;28;20680;-77
2021/08/24 09:18:37;;;;;;;2.42;0.65;;;;;;;16.43;100.00;101538.19;5056011;28;20140;-77
2021/08/24 09:21:43;;;;;;;1.02;0.50;;;;;;;16.46;100.00;101540.03;5056821;28;20315;-76
2021/08/24 09:24:47;;;;;;;1.30;0.50;;;;;;;16.58;100.00;101545.50;5056699;28;20070;-76
2021/08/24 09:28:14;;;;;;;1.42;0.77;;;;;;;16.56;100.00;101535.97;5055099;28;20092;-77
2021/08/24 09:31:20;;;;;;;0.77;0.28;;;;;;;16.56;100.00;101539.56;5055619;28;20055;-76
2021/08/24 09:34:28;;;;;;;1.05;0.28;;;;;;;16.61;100.00;101533.25;5057863;28;20200;-76
2021/08/24 09:37:36;;;;;;;0.65;0.57;;;;;;;16.56;100.00;101539.56;5059088;28;20047;-77
2021/08/24 09:40:46;;;;;;;1.50;0.20;;;;;;;16.63;100.00;101536.38;5059210;28;20046;-76
2021/08/24 09:43:49;;;;;;;1.10;0.52;;;;;;;16.74;100.00;101529.47;5058964;28;20047;-76
2021/08/24 09:47:03;;;;;;;1.45;0.40;;;;;;;16.94;100.00;101521.19;5058140;28;20149;-76
2021/08/24 09:50:15;;;;;;;1.30;0.63;;;;;;;17.03;100.00;101518.31;5054199;28;20636;-76
2021/08/24 09:53:39;;;;;;;3.22;0.93;;;;;;;17.07;100.00;101518.91;5052730;28;20078;-75
2021/08/24 09:56:51;;;;;;;1.65;0.32;;;;;;;17.07;100.00;101525.31;5038288;28;20074;-76
2021/08/24 09:59:59;;;;;;;1.02;0.52;;;;;;;17.11;100.00;101516.69;5051450;28;20135;-76
2021/08/24 10:03:26;;;;;;;0.80;0.52;;;;;;;17.07;100.00;101513.28;5052557;28;20126;-76
2021/08/24 10:06:32;;;;;;;8.27;1.05;;;;;;;17.05;100.00;101521.44;5050670;28;20275;-75
2021/08/24 10:09:38;;;;;;;3.50;0.47;;;;;;;17.08;100.00;101523.31;5050481;28;20508;-76
2021/08/24 10:12:41;;;;;;;3.35;0.50;;;;;;;17.12;100.00;101526.72;5050264;28;20070;-75
2021/08/24 10:15:45;;;;;;;3.90;0.80;;;;;;;17.12;100.00;101509.81;5050443;28;20691;-76
2021/08/24 10:18:52;;;;;;;5.07;1.02;;;;;;;17.14;100.00;101512.91;5049972;28;21271;-76
2021/08/24 10:22:02;;;;;;;2.40;0.73;;;;;;;17.11;100.00;101513.88;5050146;28;20051;-75
2021/08/24 10:25:09;;;;;;;2.25;0.68;;;;;;;17.06;100.00;101506.91;5051223;28;20082;-77
2021/08/24 10:28:20;;;;;;;4.78;0.60;;;;;;;17.06;100.00;101523.78;5053882;28;20051;-77
2021/08/24 10:31:33;;;;;;;0.77;0.40;;;;;;;16.99;100.00;101517.72;5054329;28;20771;-77
2021/08/24 10:34:40;;;;;;;5.43;1.50;;;;;;;17.02;100.00;101513.97;5054757;28;20047;-77
2021/08/24 10:37:47;;;;;;;1.35;0.57;;;;;;;17.09;100.00;101516.41;5053475;28;20059;-77
2021/08/24 10:40:50;;;;;;;3.00;0.60;;;;;;;17.21;100.00;101512.56;5053670;28;20144;-76
2021/08/24 10:43:57;;;;;;;2.38;1.00;;;;;;;17.21;100.00;101512.56;5051448;28;20047;-76
2021/08/24 10:47:00;;;;;;;1.52;0.20;;;;;;;17.21;100.00;101518.19;5051104;28;20101;-76
2021/08/24 10:50:06;;;;;;;0.95;0.20;;;;;;;17.28;100.00;101506.56;5051722;28;20093;-76
2021/08/24 10:53:27;;;;;;;1.52;0.52;;;;;;;17.51;100.00;101508.56;5051104;28;20058;-75
2021/08/24 10:56:36;;;;;;;1.60;0.77;;;;;;;17.68;100.00;101501.22;5049161;28;20844;-76
2021/08/24 10:59:53;;;;;;;3.55;0.47;;;;;;;17.75;100.00;101500.81;5049468;28;20448;-75
2021/08/24 11:03:18;;;;;;;1.85;0.40;;;;;;;17.70;100.00;101495.06;5053730;28;20253;-77
2021/08/24 11:06:53;;;;;;;1.20;0.65;;;;;;;17.65;100.00;101499.34;5049104;28;20055;-76
2021/08/24 11:10:04;;;;;;;1.10;0.40;;;;;;;17.57;100.00;101500.22;5050080;28;20058;-76
2021/08/24 11:13:22;;;;;;;3.40;0.85;;;;;;;17.58;100.00;101496.94;5035413;28;20655;-76
2021/08/24 11:16:56;;;;;;;2.38;0.40;;;;;;;17.56;100.00;101499.47;5047621;28;20347;-76
2021/08/24 11:20:29;;;;;;;1.27;0.45;;;;;;;17.56;100.00;101499.47;5047664;28;20730;-76
2021/08/24 11:23:47;;;;;;;3.28;0.95;;;;;;;17.60;100.00;101499.25;5047507;28;20360;-76
2021/08/24 11:27:01;;;;;;;2.55;0.80;;;;;;;17.85;100.00;101488.19;5048124;28;20289;-76
2021/08/24 11:30:17;;;;;;;1.60;0.63;;;;;;;18.08;100.00;101478.81;5048012;28;20627;-76
2021/08/24 11:33:27;;;;;;;1.98;0.50;;;;;;;18.19;100.00;101487.47;5048411;28;20074;-76
2021/08/24 11:36:33;;;;;;;2.45;0.88;;;;;;;18.48;100.00;101485.88;5035508;28;20713;-76
2021/08/24 11:39:46;;;;;;;1.70;0.50;;;;;;;18.67;100.00;101478.69;5049585;28;20039;-76
2021/08/24 11:42:54;;;;;;;0.52;0.20;;;;;;;18.71;100.00;101484.94;5050517;28;20373;-76
2021/08/24 11:46:01;;;;;;;1.10;0.22;;;;;;;18.71;100.00;101479.28;5050212;28;20128;-76
2021/08/24 11:49:15;;;;;;;1.58;0.57;;;;;;;18.82;100.00;101477.38;5050934;28;20257;-76
2021/08/24 11:52:48;;;;;;;3.10;0.75;;;;;;;19.08;100.00;101479.50;5054784;28;20244;-76
2021/08/24 11:55:56;;;;;;;0.50;0.20;;;;;;;19.31;100.00;101465.13;5054601;28;20117;-77
2021/08/24 11:59:05;;;;;;;0.70;0.55;;;;;;;19.40;100.00;101473.50;5052201;28;20423;-77
2021/08/24 12:02:37;;;;;;;0.35;0.20;;;;;;;19.43;100.00;101461.19;5053369;28;20287;-77
2021/08/24 12:05:48;;;;;;;0.60;0.15;;;;;;;19.64;100.00;101468.31;5055357;28;20150;-77
2021/08/24 12:08:56;;;;;;;0.80;0.30;;;;;;;19.69;100.00;101472.47;5057085;28;20109;-77
2021/08/24 12:11:59;;;;;;;1.30;0.38;;;;;;;19.73;100.00;101472.25;5057627;28;20760;-77
2021/08/24 12:15:13;;;;;;;0.32;0.30;;;;;;;19.81;100.00;101473.34;5058261;28;21265;-78
2021/08/24 12:18:19;;;;;;;0.50;0.20;;;;;;;19.81;100.00;101473.34;5059174;28;20260;-77
2021/08/24 12:21:27;;;;;;;0.10;0.10;;;;;;;19.78;100.00;101465.88;5056852;28;20240;-77
2021/08/24 12:24:30;;;;;;;3.30;0.20;;;;;;;19.74;100.00;101457.63;5056632;28;20681;-77
2021/08/24 12:27:50;;;;;;;0.50;0.13;;;;;;;19.72;100.00;101459.41;5057720;28;20347;-77
2021/08/24 12:30:56;;;;;;;1.30;0.10;;;;;;;19.76;100.00;101459.94;5057861;28;20671;-77
2021/08/24 12:33:59;;;;;;;0.70;0.30;;;;;;;19.86;100.00;101452.84;5056553;28;20136;-78
2021/08/24 12:37:19;;;;;;;1.60;0.38;;;;;;;19.91;100.00;101458.53;5033807;28;20606;-77
2021/08/24 12:40:50;;;;;;;0.37;0.10;;;;;;;19.79;100.00;101453.28;5032608;28;20184;-77
2021/08/24 12:43:53;;;;;;;0.20;0.10;;;;;;;19.67;100.00;101458.06;5034908;28;20346;-77
2021/08/24 12:47:30;;;;;;;0.28;0.17;;;;;;;19.64;100.00;101459.84;5030189;28;20149;-76
2021/08/24 12:50:33;;;;;;;0.20;0.05;;;;;;;19.65;100.00;101455.75;5030079;28;20166;-75
2021/08/24 12:53:43;;;;;;;0.35;0.05;;;;;;;19.61;100.00;101443.09;5030684;28;20150;-76
2021/08/24 12:56:50;;;;;;;0.37;0.20;;;;;;;19.55;100.00;101445.91;5029834;28;20721;-76
2021/08/24 12:59:54;;;;;;;0.13;0.13;;;;;;;19.62;100.00;101439.03;5029108;28;20126;-76
2021/08/24 13:03:21;;;;;;;0.88;0.13;;;;;;;19.58;100.00;101438.44;5029879;28;20133;-76
2021/08/24 13:06:28;;;;;;;0.38;0.10;;;;;;;19.59;100.00;101435.13;5030635;28;20489;-77
2021/08/24 13:09:37;;;;;;;0.73;0.10;;;;;;;19.56;100.00;101444.59;5035238;28;20047;-77
2021/08/24 13:12:42;;;;;;;0.20;0.10;;;;;;;19.41;100.00;101435.47;5031455;28;20081;-77
2021/08/24 13:15:48;;;;;;;2.83;0.10;;;;;;;19.37;100.00;101434.91;5030651;28;20109;-77
2021/08/24 13:18:58;;;;;;;3.40;0.20;;;;;;;19.45;100.00;101436.03;5032688;28;20150;-77
2021/08/24 13:22:04;;;;;;;4.07;0.20;;;;;;;19.61;100.00;101424.09;5032106;28;20998;-76
2021/08/24 13:25:13;;;;;;;0.75;0.17;;;;;;;19.77;100.00;101410.63;5034696;28;20079;-77
2021/08/24 13:28:21;;;;;;;5.07;0.30;;;;;;;19.90;100.00;101420.25;5030266;28;20336;-76
2021/08/24 13:31:44;;;;;;;1.02;0.28;;;;;;;19.90;100.00;101425.13;5030581;28;20102;-76
2021/08/24 13:34:53;;;;;;;0.28;0.28;;;;;;;19.87;100.00;101414.78;5034121;28;20611;-76
2021/08/24 13:38:24;;;;;;;0.85;0.30;;;;;;;20.01;100.00;101414.63;5055481;28;20066;-76
2021/08/24 13:41:34;;;;;;;0.73;0.30;;;;;;;19.98;100.00;101410.00;5054457;28;20070;-79
2021/08/24 13:44:41;;;;;;;1.15;0.38;;;;;;;19.85;100.00;101411.69;5052973;28;20301;-78
2021/08/24 13:47:50;;;;;;;0.60;0.10;;;;;;;19.60;100.00;101402.75;5038253;28;20410;-77
2021/08/24 13:51:06;;;;;;;1.25;0.30;;;;;;;19.50;100.00;101409.88;5053621;28;20042;-77
2021/08/24 13:54:11;;;;;;;0.45;0.10;;;;;;;19.47;100.00;101410.88;5052040;28;20085;-77
2021/08/24 13:57:24;;;;;;;1.95;0.45;;;;;;;19.55;100.00;101406.34;5050857;28;20141;-78
2021/08/24 14:00:27;;;;;;;0.73;0.20;;;;;;;19.61;100.00;101404.31;5037647;28;20304;-78
2021/08/24 14:03:39;;;;;;;1.13;0.28;;;;;;;19.63;100.00;101401.75;5051000;28;20063;-76
2021/08/24 14:06:52;;;;;;;1.00;0.15;;;;;;;19.51;100.00;101388.78;5050295;28;20306;-76
2021/08/24 14:10:10;;;;;;;0.63;0.28;;;;;;;19.47;100.00;101398.78;5050801;28;20481;-77
2021/08/24 14:13:18;;;;;;;2.03;0.80;;;;;;;19.40;100.00;101397.19;5050727;28;20066;-77
2021/08/24 14:16:34;;;;;;;1.25;0.47;;;;;;;19.38;100.00;101394.06;5050120;28;20678;-77
2021/08/24 14:19:38;;;;;;;1.58;0.68;;;;;;;19.43;100.00;101392.56;5049482;28;20299;-77
2021/08/24 14:22:42;;;;;;;1.73;0.50;;;;;;;19.58;100.00;101390.41;5050139;28;20075;-77
2021/08/24 14:25:49;;;;;;;1.80;0.88;;;;;;;19.70;100.00;101391.28;5050036;28;20567;-78